createdAt,value
2022-10-30T00:00:06.812Z,98608.00
2022-10-30T00:00:16.803Z,98610.00
2022-10-30T00:00:26.822Z,98608.00
2022-10-30T00:00:36.822Z,98608.00
2022-10-30T00:00:47.122Z,98610.00
2022-10-30T00:00:56.782Z,98608.00
2022-10-30T00:01:06.793Z,98608.00
2022-10-30T00:01:17.227Z,98606.00
2022-10-30T00:01:26.860Z,98606.00
2022-10-30T00:01:38.288Z,98608.00
2022-10-30T00:01:46.928Z,98608.00
2022-10-30T00:01:57.742Z,98606.00
2022-10-30T00:02:06.925Z,98602.00
2022-10-30T00:02:18.420Z,98604.00
2022-10-30T00:02:28.321Z,98602.00
2022-10-30T00:02:37.104Z,98604.00
2022-10-30T00:02:48.316Z,98604.00
2022-10-30T00:02:58.179Z,98602.00
2022-10-30T00:03:06.818Z,98602.00
2022-10-30T00:03:16.981Z,98602.00
2022-10-30T00:03:26.813Z,98598.00
2022-10-30T00:03:38.253Z,98602.00
2022-10-30T00:03:46.784Z,98602.00
2022-10-30T00:03:56.798Z,98604.00
2022-10-30T00:04:06.784Z,98602.00
2022-10-30T00:04:16.784Z,98604.00
2022-10-30T00:04:26.811Z,98600.00
2022-10-30T00:04:38.233Z,98602.00
2022-10-30T00:04:48.233Z,98602.00
2022-10-30T00:04:58.233Z,98602.00
2022-10-30T00:05:08.223Z,98600.00
2022-10-30T00:05:16.785Z,98600.00
2022-10-30T00:05:27.724Z,98600.00
2022-10-30T00:05:38.236Z,98604.00
2022-10-30T00:05:46.773Z,98602.00
2022-10-30T00:05:56.849Z,98602.00
2022-10-30T00:06:08.284Z,98602.00
2022-10-30T00:06:26.807Z,98604.00
2022-10-30T00:06:38.216Z,98602.00
2022-10-30T00:06:46.794Z,98604.00
2022-10-30T00:06:56.883Z,98600.00
2022-10-30T00:07:06.754Z,98600.00
2022-10-30T00:07:16.791Z,98600.00
2022-10-30T00:07:27.384Z,98600.00
2022-10-30T00:07:38.249Z,98600.00
2022-10-30T00:07:46.756Z,98602.00
2022-10-30T00:07:57.148Z,98598.00
2022-10-30T00:08:08.204Z,98602.00
2022-10-30T00:08:16.764Z,98602.00
2022-10-30T00:08:28.213Z,98600.00
2022-10-30T00:08:37.703Z,98600.00
2022-10-30T00:08:46.765Z,98602.00
2022-10-30T00:08:59.595Z,98600.00
2022-10-30T00:09:06.736Z,98598.00
2022-10-30T00:09:18.194Z,98598.00
2022-10-30T00:09:28.197Z,98598.00
2022-10-30T00:09:38.198Z,98600.00
2022-10-30T00:09:48.208Z,98596.00
2022-10-30T00:09:56.753Z,98598.00
2022-10-30T00:10:08.205Z,98598.00
2022-10-30T00:10:18.210Z,98598.00
2022-10-30T00:10:27.686Z,98596.00
2022-10-30T00:10:38.195Z,98594.00
2022-10-30T00:10:48.194Z,98596.00
2022-10-30T00:10:56.746Z,98596.00
2022-10-30T00:11:06.737Z,98600.00
2022-10-30T00:11:18.189Z,98594.00
2022-10-30T00:11:26.730Z,98596.00
2022-10-30T00:11:38.197Z,98600.00
2022-10-30T00:11:46.716Z,98594.00
2022-10-30T00:11:56.756Z,98594.00
2022-10-30T00:12:08.212Z,98594.00
2022-10-30T00:12:16.727Z,98598.00
2022-10-30T00:12:28.175Z,98594.00
2022-10-30T00:12:37.749Z,98598.00
2022-10-30T00:12:46.736Z,98596.00
2022-10-30T00:12:58.195Z,98600.00
2022-10-30T00:13:08.194Z,98596.00
2022-10-30T00:13:17.564Z,98594.00
2022-10-30T00:13:28.156Z,98600.00
2022-10-30T00:13:38.166Z,98594.00
2022-10-30T00:13:48.156Z,98594.00
2022-10-30T00:13:58.168Z,98594.00
2022-10-30T00:14:08.156Z,98594.00
2022-10-30T00:14:18.155Z,98596.00
2022-10-30T00:14:28.157Z,98594.00
2022-10-30T00:14:36.715Z,98594.00
2022-10-30T00:14:46.717Z,98594.00
2022-10-30T00:14:57.656Z,98600.00
2022-10-30T00:15:06.750Z,98594.00
2022-10-30T00:15:16.727Z,98598.00
2022-10-30T00:15:26.686Z,98600.00
2022-10-30T00:15:36.707Z,98600.00
2022-10-30T00:15:48.147Z,98600.00
2022-10-30T00:15:56.706Z,98594.00
2022-10-30T00:16:06.696Z,98600.00
2022-10-30T00:16:18.148Z,98600.00
2022-10-30T00:16:27.518Z,98596.00
2022-10-30T00:16:38.146Z,98600.00
2022-10-30T00:16:48.136Z,98596.00
2022-10-30T00:16:58.182Z,98596.00
2022-10-30T00:17:08.128Z,98596.00
2022-10-30T00:17:16.706Z,98594.00
2022-10-30T00:17:26.692Z,98596.00
2022-10-30T00:17:38.152Z,98598.00
2022-10-30T00:17:46.669Z,98596.00
2022-10-30T00:17:58.565Z,98598.00
2022-10-30T00:18:08.396Z,98596.00
2022-10-30T00:18:18.128Z,98596.00
2022-10-30T00:18:26.697Z,98596.00
2022-10-30T00:18:38.137Z,98596.00
2022-10-30T00:18:46.670Z,98598.00
2022-10-30T00:18:58.138Z,98596.00
2022-10-30T00:19:06.710Z,98596.00
2022-10-30T00:19:18.170Z,98596.00
2022-10-30T00:19:27.478Z,98598.00
2022-10-30T00:19:36.689Z,98596.00
2022-10-30T00:19:48.126Z,98596.00
2022-10-30T00:19:58.127Z,98596.00
2022-10-30T00:20:08.108Z,98596.00
2022-10-30T00:20:16.667Z,98596.00
2022-10-30T00:20:28.146Z,98594.00
2022-10-30T00:20:38.120Z,98596.00
2022-10-30T00:20:46.762Z,98594.00
2022-10-30T00:20:58.163Z,98596.00
2022-10-30T00:21:06.968Z,98594.00
2022-10-30T00:21:16.674Z,98596.00
2022-10-30T00:21:26.889Z,98594.00
2022-10-30T00:21:37.136Z,98594.00
2022-10-30T00:21:47.207Z,98592.00
2022-10-30T00:22:18.205Z,98596.00
2022-10-30T00:22:28.253Z,98596.00
2022-10-30T00:22:38.268Z,98598.00
2022-10-30T00:22:48.172Z,98594.00
2022-10-30T00:22:58.646Z,98594.00
2022-10-30T00:23:08.256Z,98598.00
2022-10-30T00:23:18.198Z,98594.00
2022-10-30T00:23:29.626Z,98596.00
2022-10-30T00:23:38.205Z,98590.00
2022-10-30T00:23:48.203Z,98594.00
2022-10-30T00:23:59.626Z,98594.00
2022-10-30T00:24:08.207Z,98596.00
2022-10-30T00:24:19.646Z,98594.00
2022-10-30T00:24:29.078Z,98596.00
2022-10-30T00:24:38.276Z,98596.00
2022-10-30T00:24:49.619Z,98596.00
2022-10-30T00:24:59.992Z,98594.00
2022-10-30T00:25:09.456Z,98596.00
2022-10-30T00:25:18.895Z,98594.00
2022-10-30T00:25:28.181Z,98594.00
2022-10-30T00:25:39.646Z,98594.00
2022-10-30T00:25:48.167Z,98596.00
2022-10-30T00:25:58.264Z,98594.00
2022-10-30T00:26:09.616Z,98594.00
2022-10-30T00:26:18.403Z,98596.00
2022-10-30T00:26:28.208Z,98592.00
2022-10-30T00:26:38.176Z,98594.00
2022-10-30T00:26:49.626Z,98594.00
2022-10-30T00:26:58.224Z,98596.00
2022-10-30T00:27:09.697Z,98594.00
2022-10-30T00:27:18.226Z,98596.00
2022-10-30T00:27:28.944Z,98594.00
2022-10-30T00:27:38.175Z,98598.00
2022-10-30T00:27:48.166Z,98596.00
2022-10-30T00:27:59.642Z,98594.00
2022-10-30T00:28:09.287Z,98594.00
2022-10-30T00:28:18.177Z,98594.00
2022-10-30T00:28:28.846Z,98598.00
2022-10-30T00:28:38.184Z,98594.00
2022-10-30T00:28:48.187Z,98600.00
2022-10-30T00:28:58.749Z,98594.00
2022-10-30T00:29:10.132Z,98596.00
2022-10-30T00:29:19.608Z,98596.00
2022-10-30T00:29:28.148Z,98594.00
2022-10-30T00:29:39.626Z,98596.00
2022-10-30T00:29:49.644Z,98598.00
2022-10-30T00:29:58.148Z,98596.00
2022-10-30T00:30:09.018Z,98594.00
2022-10-30T00:30:19.598Z,98594.00
2022-10-30T00:30:29.607Z,98592.00
2022-10-30T00:30:39.588Z,98600.00
2022-10-30T00:30:48.956Z,98596.00
2022-10-30T00:30:59.599Z,98590.00
2022-10-30T00:31:08.144Z,98596.00
2022-10-30T00:31:19.578Z,98596.00
2022-10-30T00:31:29.090Z,98594.00
2022-10-30T00:31:39.608Z,98590.00
2022-10-30T00:31:49.586Z,98592.00
2022-10-30T00:31:59.589Z,98594.00
2022-10-30T00:32:09.087Z,98592.00
2022-10-30T00:32:19.590Z,98596.00
2022-10-30T00:32:29.590Z,98594.00
2022-10-30T00:32:39.578Z,98594.00
2022-10-30T00:32:49.018Z,98596.00
2022-10-30T00:32:58.414Z,98596.00
2022-10-30T00:33:08.138Z,98594.00
2022-10-30T00:33:19.588Z,98594.00
2022-10-30T00:33:29.128Z,98594.00
2022-10-30T00:33:39.146Z,98594.00
2022-10-30T00:33:49.678Z,98594.00
2022-10-30T00:33:58.128Z,98590.00
2022-10-30T00:34:08.919Z,98594.00
2022-10-30T00:34:18.176Z,98594.00
2022-10-30T00:34:29.580Z,98594.00
2022-10-30T00:34:39.561Z,98592.00
2022-10-30T00:34:48.378Z,98594.00
2022-10-30T00:34:58.119Z,98592.00
2022-10-30T00:35:08.128Z,98592.00
2022-10-30T00:35:19.588Z,98592.00
2022-10-30T00:35:29.566Z,98594.00
2022-10-30T00:35:38.153Z,98594.00
2022-10-30T00:35:48.140Z,98592.00
2022-10-30T00:35:58.109Z,98592.00
2022-10-30T00:36:08.181Z,98592.00
2022-10-30T00:36:18.380Z,98594.00
2022-10-30T00:36:28.430Z,98594.00
2022-10-30T00:36:38.099Z,98594.00
2022-10-30T00:36:48.108Z,98596.00
2022-10-30T00:36:58.100Z,98592.00
2022-10-30T00:37:08.118Z,98592.00
2022-10-30T00:37:19.550Z,98592.00
2022-10-30T00:37:29.547Z,98592.00
2022-10-30T00:37:39.066Z,98590.00
2022-10-30T00:37:48.489Z,98594.00
2022-10-30T00:37:58.300Z,98592.00
2022-10-30T00:38:09.020Z,98592.00
2022-10-30T00:38:19.062Z,98590.00
2022-10-30T00:38:28.099Z,98590.00
2022-10-30T00:38:38.092Z,98590.00
2022-10-30T00:38:48.112Z,98592.00
2022-10-30T00:38:59.559Z,98592.00
2022-10-30T00:39:09.530Z,98592.00
2022-10-30T00:39:19.530Z,98592.00
2022-10-30T00:39:29.561Z,98590.00
2022-10-30T00:39:38.113Z,98590.00
2022-10-30T00:39:49.510Z,98592.00
2022-10-30T00:39:59.540Z,98590.00
2022-10-30T00:40:09.586Z,98588.00
2022-10-30T00:40:19.510Z,98590.00
2022-10-30T00:40:28.070Z,98588.00
2022-10-30T00:40:39.531Z,98590.00
2022-10-30T00:40:49.521Z,98590.00
2022-10-30T00:40:58.081Z,98588.00
2022-10-30T00:41:08.061Z,98588.00
2022-10-30T00:41:19.540Z,98588.00
2022-10-30T00:41:29.520Z,98588.00
2022-10-30T00:41:39.532Z,98588.00
2022-10-30T00:41:48.920Z,98586.00
2022-10-30T00:41:58.071Z,98588.00
2022-10-30T00:42:08.041Z,98586.00
2022-10-30T00:42:19.520Z,98588.00
2022-10-30T00:42:29.501Z,98586.00
2022-10-30T00:42:39.502Z,98586.00
2022-10-30T00:42:48.051Z,98586.00
2022-10-30T00:42:59.522Z,98586.00
2022-10-30T00:43:09.559Z,98588.00
2022-10-30T00:43:18.045Z,98588.00
2022-10-30T00:43:29.501Z,98584.00
2022-10-30T00:43:39.533Z,98588.00
2022-10-30T00:43:49.472Z,98588.00
2022-10-30T00:43:58.172Z,98590.00
2022-10-30T00:44:08.022Z,98586.00
2022-10-30T00:44:19.103Z,98586.00
2022-10-30T00:44:28.051Z,98584.00
2022-10-30T00:44:39.536Z,98586.00
2022-10-30T00:44:48.277Z,98586.00
2022-10-30T00:44:59.474Z,98584.00
2022-10-30T00:45:08.042Z,98586.00
2022-10-30T00:45:18.846Z,98584.00
2022-10-30T00:45:29.503Z,98584.00
2022-10-30T00:45:38.037Z,98586.00
2022-10-30T00:45:48.794Z,98586.00
2022-10-30T00:45:59.506Z,98586.00
2022-10-30T00:46:09.472Z,98586.00
2022-10-30T00:46:19.007Z,98586.00
2022-10-30T00:46:29.472Z,98584.00
2022-10-30T00:46:39.481Z,98584.00
2022-10-30T00:46:48.951Z,98584.00
2022-10-30T00:46:59.482Z,98582.00
2022-10-30T00:47:09.467Z,98582.00
2022-10-30T00:47:18.905Z,98584.00
2022-10-30T00:47:28.016Z,98584.00
2022-10-30T00:47:39.493Z,98584.00
2022-10-30T00:47:48.853Z,98580.00
2022-10-30T00:47:58.325Z,98584.00
2022-10-30T00:48:08.745Z,98586.00
2022-10-30T00:48:18.811Z,98580.00
2022-10-30T00:48:28.022Z,98580.00
2022-10-30T00:48:39.485Z,98580.00
2022-10-30T00:48:48.041Z,98584.00
2022-10-30T00:48:58.196Z,98582.00
2022-10-30T00:49:09.433Z,98580.00
2022-10-30T00:49:19.463Z,98582.00
2022-10-30T00:49:28.403Z,98582.00
2022-10-30T00:49:38.032Z,98582.00
2022-10-30T00:49:48.476Z,98582.00
2022-10-30T00:49:58.013Z,98582.00
2022-10-30T00:50:08.187Z,98582.00
2022-10-30T00:50:18.069Z,98582.00
2022-10-30T00:50:38.072Z,98582.00
2022-10-30T00:50:48.474Z,98584.00
2022-10-30T00:50:58.812Z,98580.00
2022-10-30T00:51:08.554Z,98580.00
2022-10-30T00:51:18.262Z,98580.00
2022-10-30T00:51:28.136Z,98580.00
2022-10-30T00:51:37.991Z,98580.00
2022-10-30T00:51:48.074Z,98578.00
2022-10-30T00:51:58.553Z,98582.00
2022-10-30T00:52:07.975Z,98580.00
2022-10-30T00:52:18.393Z,98580.00
2022-10-30T00:52:28.223Z,98580.00
2022-10-30T00:52:38.564Z,98580.00
2022-10-30T00:52:48.405Z,98580.00
2022-10-30T00:52:59.888Z,98580.00
2022-10-30T00:53:09.464Z,98582.00
2022-10-30T00:53:18.619Z,98582.00
2022-10-30T00:53:28.031Z,98580.00
2022-10-30T00:53:37.954Z,98582.00
2022-10-30T00:53:48.705Z,98580.00
2022-10-30T00:53:57.965Z,98582.00
2022-10-30T00:54:07.984Z,98580.00
2022-10-30T00:54:18.300Z,98580.00
2022-10-30T00:54:27.944Z,98580.00
2022-10-30T00:54:37.973Z,98580.00
2022-10-30T00:54:47.966Z,98580.00
2022-10-30T00:54:57.965Z,98580.00
2022-10-30T00:55:09.436Z,98580.00
2022-10-30T00:55:19.414Z,98580.00
2022-10-30T00:55:27.966Z,98580.00
2022-10-30T00:55:37.987Z,98578.00
2022-10-30T00:55:49.467Z,98578.00
2022-10-30T00:55:57.964Z,98578.00
2022-10-30T00:56:07.957Z,98580.00
2022-10-30T00:56:17.996Z,98578.00
2022-10-30T00:56:27.970Z,98580.00
2022-10-30T00:56:37.964Z,98578.00
2022-10-30T00:56:49.416Z,98580.00
2022-10-30T00:56:58.946Z,98580.00
2022-10-30T00:57:08.005Z,98578.00
2022-10-30T00:57:17.974Z,98578.00
2022-10-30T00:57:29.434Z,98580.00
2022-10-30T00:57:39.398Z,98576.00
2022-10-30T00:57:47.956Z,98574.00
2022-10-30T00:57:57.997Z,98578.00
2022-10-30T00:58:09.437Z,98580.00
2022-10-30T00:58:18.895Z,98578.00
2022-10-30T00:58:29.390Z,98576.00
2022-10-30T00:58:37.944Z,98576.00
2022-10-30T00:58:49.017Z,98576.00
2022-10-30T00:58:59.405Z,98578.00
2022-10-30T00:59:07.966Z,98578.00
2022-10-30T00:59:17.927Z,98576.00
2022-10-30T00:59:27.945Z,98576.00
2022-10-30T00:59:37.946Z,98578.00
2022-10-30T00:59:49.402Z,98576.00
2022-10-30T00:59:59.400Z,98574.00
2022-10-30T01:00:07.986Z,98574.00
2022-10-30T01:00:17.957Z,98576.00
2022-10-30T01:00:29.385Z,98576.00
2022-10-30T01:00:38.896Z,98576.00
2022-10-30T01:00:49.381Z,98574.00
2022-10-30T01:00:59.421Z,98574.00
2022-10-30T01:01:09.430Z,98572.00
2022-10-30T01:01:19.487Z,98574.00
2022-10-30T01:01:29.516Z,98574.00
2022-10-30T01:01:39.428Z,98574.00
2022-10-30T01:01:50.250Z,98574.00
2022-10-30T01:01:58.775Z,98572.00
2022-10-30T01:02:08.155Z,98572.00
2022-10-30T01:02:19.627Z,98572.00
2022-10-30T01:02:28.224Z,98572.00
2022-10-30T01:02:38.083Z,98572.00
2022-10-30T01:02:48.098Z,98572.00
2022-10-30T01:02:58.472Z,98576.00
2022-10-30T01:03:08.038Z,98574.00
2022-10-30T01:03:18.031Z,98574.00
2022-10-30T01:03:28.018Z,98578.00
2022-10-30T01:03:39.447Z,98576.00
2022-10-30T01:03:48.447Z,98574.00
2022-10-30T01:03:58.011Z,98574.00
2022-10-30T01:04:07.996Z,98572.00
2022-10-30T01:04:18.034Z,98574.00
2022-10-30T01:04:30.170Z,98572.00
2022-10-30T01:04:39.678Z,98570.00
2022-10-30T01:04:49.700Z,98568.00
2022-10-30T01:04:58.331Z,98570.00
2022-10-30T01:05:19.700Z,98570.00
2022-10-30T01:05:29.709Z,98572.00
2022-10-30T01:05:38.261Z,98570.00
2022-10-30T01:05:48.226Z,98568.00
2022-10-30T01:05:58.245Z,98570.00
2022-10-30T01:06:09.688Z,98570.00
2022-10-30T01:06:18.241Z,98570.00
2022-10-30T01:06:28.237Z,98568.00
2022-10-30T01:06:38.508Z,98570.00
2022-10-30T01:06:48.332Z,98570.00
2022-10-30T01:06:58.252Z,98568.00
2022-10-30T01:07:09.048Z,98572.00
2022-10-30T01:07:19.689Z,98570.00
2022-10-30T01:07:28.239Z,98570.00
2022-10-30T01:07:38.249Z,98570.00
2022-10-30T01:07:48.239Z,98570.00
2022-10-30T01:07:59.798Z,98570.00
2022-10-30T01:08:09.678Z,98570.00
2022-10-30T01:08:18.278Z,98574.00
2022-10-30T01:08:28.283Z,98572.00
2022-10-30T01:08:38.429Z,98572.00
2022-10-30T01:08:48.296Z,98568.00
2022-10-30T01:09:00.333Z,98570.00
2022-10-30T01:09:09.265Z,98568.00
2022-10-30T01:09:19.704Z,98566.00
2022-10-30T01:09:29.658Z,98572.00
2022-10-30T01:09:39.149Z,98572.00
2022-10-30T01:09:49.688Z,98572.00
2022-10-30T01:09:58.199Z,98572.00
2022-10-30T01:10:09.019Z,98570.00
2022-10-30T01:10:19.664Z,98570.00
2022-10-30T01:10:29.657Z,98572.00
2022-10-30T01:10:38.971Z,98572.00
2022-10-30T01:10:49.651Z,98574.00
2022-10-30T01:10:59.650Z,98574.00
2022-10-30T01:11:08.209Z,98572.00
2022-10-30T01:11:18.203Z,98574.00
2022-10-30T01:11:28.198Z,98574.00
2022-10-30T01:11:39.128Z,98572.00
2022-10-30T01:11:49.969Z,98570.00
2022-10-30T01:12:00.516Z,98572.00
2022-10-30T01:12:09.079Z,98570.00
2022-10-30T01:12:19.650Z,98572.00
2022-10-30T01:12:28.201Z,98574.00
2022-10-30T01:12:38.220Z,98572.00
2022-10-30T01:12:49.669Z,98572.00
2022-10-30T01:12:58.231Z,98572.00
2022-10-30T01:13:08.220Z,98572.00
2022-10-30T01:13:19.673Z,98572.00
2022-10-30T01:13:28.191Z,98572.00
2022-10-30T01:13:39.198Z,98572.00
2022-10-30T01:13:48.229Z,98572.00
2022-10-30T01:13:58.251Z,98570.00
2022-10-30T01:14:09.149Z,98570.00
2022-10-30T01:14:18.339Z,98570.00
2022-10-30T01:14:28.256Z,98570.00
2022-10-30T01:14:39.099Z,98570.00
2022-10-30T01:14:49.680Z,98568.00
2022-10-30T01:14:59.641Z,98570.00
2022-10-30T01:15:08.188Z,98570.00
2022-10-30T01:15:18.649Z,98570.00
2022-10-30T01:15:28.241Z,98572.00
2022-10-30T01:15:39.012Z,98572.00
2022-10-30T01:15:48.550Z,98570.00
2022-10-30T01:15:59.615Z,98574.00
2022-10-30T01:16:08.953Z,98572.00
2022-10-30T01:16:18.171Z,98570.00
2022-10-30T01:16:29.650Z,98570.00
2022-10-30T01:16:39.162Z,98570.00
2022-10-30T01:16:48.181Z,98572.00
2022-10-30T01:16:58.674Z,98572.00
2022-10-30T01:17:08.333Z,98572.00
2022-10-30T01:17:19.610Z,98570.00
2022-10-30T01:17:29.621Z,98572.00
2022-10-30T01:17:38.161Z,98570.00
2022-10-30T01:17:49.632Z,98570.00
2022-10-30T01:17:58.478Z,98568.00
2022-10-30T01:18:09.017Z,98570.00
2022-10-30T01:18:19.631Z,98570.00
2022-10-30T01:18:28.161Z,98570.00
2022-10-30T01:18:38.246Z,98568.00
2022-10-30T01:18:49.603Z,98570.00
2022-10-30T01:18:58.984Z,98568.00
2022-10-30T01:19:08.923Z,98572.00
2022-10-30T01:19:19.624Z,98568.00
2022-10-30T01:19:28.930Z,98568.00
2022-10-30T01:19:39.591Z,98570.00
2022-10-30T01:19:48.223Z,98572.00
2022-10-30T01:19:59.639Z,98572.00
2022-10-30T01:20:09.603Z,98572.00
2022-10-30T01:20:19.092Z,98572.00
2022-10-30T01:20:29.594Z,98574.00
2022-10-30T01:20:39.602Z,98572.00
2022-10-30T01:20:49.602Z,98574.00
2022-10-30T01:20:59.595Z,98574.00
2022-10-30T01:21:09.593Z,98568.00
2022-10-30T01:21:19.593Z,98570.00
2022-10-30T01:21:28.141Z,98568.00
2022-10-30T01:21:39.631Z,98568.00
2022-10-30T01:21:48.149Z,98570.00
2022-10-30T01:21:59.585Z,98568.00
2022-10-30T01:22:09.604Z,98570.00
2022-10-30T01:22:18.133Z,98570.00
2022-10-30T01:22:28.164Z,98568.00
2022-10-30T01:22:38.154Z,98570.00
2022-10-30T01:22:48.182Z,98568.00
2022-10-30T01:22:58.467Z,98568.00
2022-10-30T01:23:09.051Z,98568.00
2022-10-30T01:23:18.141Z,98568.00
2022-10-30T01:23:29.593Z,98572.00
2022-10-30T01:23:38.113Z,98568.00
2022-10-30T01:23:48.132Z,98572.00
2022-10-30T01:23:59.587Z,98568.00
2022-10-30T01:24:08.134Z,98570.00
2022-10-30T01:24:18.142Z,98566.00
2022-10-30T01:24:28.924Z,98570.00
2022-10-30T01:24:38.175Z,98566.00
2022-10-30T01:24:48.104Z,98570.00
2022-10-30T01:24:58.134Z,98570.00
2022-10-30T01:25:08.164Z,98565.00
2022-10-30T01:25:18.201Z,98566.00
2022-10-30T01:25:28.133Z,98570.00
2022-10-30T01:25:38.180Z,98570.00
2022-10-30T01:25:48.204Z,98568.00
2022-10-30T01:25:59.034Z,98568.00
2022-10-30T01:26:08.193Z,98568.00
2022-10-30T01:26:18.217Z,98568.00
2022-10-30T01:26:29.052Z,98570.00
2022-10-30T01:26:38.181Z,98566.00
2022-10-30T01:26:48.215Z,98568.00
2022-10-30T01:26:59.543Z,98568.00
2022-10-30T01:27:08.103Z,98568.00
2022-10-30T01:27:18.223Z,98570.00
2022-10-30T01:27:28.262Z,98568.00
2022-10-30T01:27:39.543Z,98572.00
2022-10-30T01:27:49.596Z,98568.00
2022-10-30T01:27:58.084Z,98568.00
2022-10-30T01:28:08.122Z,98570.00
2022-10-30T01:28:18.104Z,98568.00
2022-10-30T01:28:28.107Z,98570.00
2022-10-30T01:28:39.543Z,98568.00
2022-10-30T01:28:48.093Z,98570.00
2022-10-30T01:28:58.094Z,98568.00
2022-10-30T01:29:09.547Z,98570.00
2022-10-30T01:29:19.544Z,98570.00
2022-10-30T01:29:29.542Z,98572.00
2022-10-30T01:29:38.088Z,98572.00
2022-10-30T01:29:49.565Z,98568.00
2022-10-30T01:29:58.104Z,98570.00
2022-10-30T01:30:08.095Z,98570.00
2022-10-30T01:30:19.544Z,98570.00
2022-10-30T01:30:29.541Z,98566.00
2022-10-30T01:30:39.534Z,98570.00
2022-10-30T01:30:49.082Z,98570.00
2022-10-30T01:30:58.073Z,98570.00
2022-10-30T01:31:08.135Z,98572.00
2022-10-30T01:31:19.505Z,98572.00
2022-10-30T01:31:29.546Z,98572.00
2022-10-30T01:31:39.524Z,98570.00
2022-10-30T01:31:48.308Z,98568.00
2022-10-30T01:31:58.073Z,98570.00
2022-10-30T01:32:08.225Z,98570.00
2022-10-30T01:32:18.093Z,98570.00
2022-10-30T01:32:29.551Z,98568.00
2022-10-30T01:32:38.055Z,98570.00
2022-10-30T01:32:48.090Z,98568.00
2022-10-30T01:33:00.233Z,98570.00
2022-10-30T01:33:09.132Z,98572.00
2022-10-30T01:33:18.288Z,98570.00
2022-10-30T01:33:29.615Z,98572.00
2022-10-30T01:33:39.615Z,98570.00
2022-10-30T01:33:49.627Z,98570.00
2022-10-30T01:33:59.644Z,98568.00
2022-10-30T01:34:08.167Z,98568.00
2022-10-30T01:34:18.206Z,98568.00
2022-10-30T01:34:29.680Z,98566.00
2022-10-30T01:34:38.222Z,98566.00
2022-10-30T01:34:49.619Z,98565.00
2022-10-30T01:34:58.154Z,98565.00
2022-10-30T01:35:08.176Z,98565.00
2022-10-30T01:35:19.618Z,98563.00
2022-10-30T01:35:29.148Z,98565.00
2022-10-30T01:35:38.164Z,98565.00
2022-10-30T01:35:48.757Z,98563.00
2022-10-30T01:35:58.146Z,98565.00
2022-10-30T01:36:08.181Z,98563.00
2022-10-30T01:36:18.176Z,98566.00
2022-10-30T01:36:28.419Z,98565.00
2022-10-30T01:36:38.458Z,98563.00
2022-10-30T01:36:49.587Z,98563.00
2022-10-30T01:36:59.002Z,98563.00
2022-10-30T01:37:09.615Z,98563.00
2022-10-30T01:37:18.490Z,98565.00
2022-10-30T01:37:28.140Z,98563.00
2022-10-30T01:37:38.559Z,98563.00
2022-10-30T01:37:48.495Z,98563.00
2022-10-30T01:37:58.434Z,98563.00
2022-10-30T01:38:09.586Z,98563.00
2022-10-30T01:38:18.498Z,98565.00
2022-10-30T01:38:28.224Z,98561.00
2022-10-30T01:38:38.567Z,98561.00
2022-10-30T01:38:48.597Z,98559.00
2022-10-30T01:38:58.637Z,98557.00
2022-10-30T01:39:08.570Z,98559.00
2022-10-30T01:39:18.604Z,98559.00
2022-10-30T01:39:28.644Z,98559.00
2022-10-30T01:39:38.707Z,98561.00
2022-10-30T01:39:48.620Z,98557.00
2022-10-30T01:39:58.537Z,98561.00
2022-10-30T01:40:08.688Z,98561.00
2022-10-30T01:40:18.307Z,98561.00
2022-10-30T01:40:28.647Z,98559.00
2022-10-30T01:40:38.689Z,98561.00
2022-10-30T01:40:48.110Z,98559.00
2022-10-30T01:40:59.589Z,98561.00
2022-10-30T01:41:08.788Z,98563.00
2022-10-30T01:41:18.726Z,98561.00
2022-10-30T01:41:28.758Z,98559.00
2022-10-30T01:41:38.128Z,98561.00
2022-10-30T01:41:48.827Z,98561.00
2022-10-30T01:41:58.761Z,98561.00
2022-10-30T01:42:09.550Z,98559.00
2022-10-30T01:42:18.929Z,98561.00
2022-10-30T01:42:28.095Z,98561.00
2022-10-30T01:42:38.187Z,98561.00
2022-10-30T01:42:48.101Z,98561.00
2022-10-30T01:42:59.567Z,98561.00
2022-10-30T01:43:09.558Z,98561.00
2022-10-30T01:43:18.908Z,98561.00
2022-10-30T01:43:28.109Z,98559.00
2022-10-30T01:43:38.127Z,98561.00
2022-10-30T01:43:48.859Z,98561.00
2022-10-30T01:43:58.587Z,98559.00
2022-10-30T01:44:09.559Z,98561.00
2022-10-30T01:44:19.548Z,98561.00
2022-10-30T01:44:28.099Z,98559.00
2022-10-30T01:44:39.577Z,98559.00
2022-10-30T01:44:49.549Z,98561.00
2022-10-30T01:44:58.094Z,98561.00
2022-10-30T01:45:09.548Z,98559.00
2022-10-30T01:45:18.138Z,98561.00
2022-10-30T01:45:29.528Z,98559.00
2022-10-30T01:45:38.089Z,98559.00
2022-10-30T01:45:48.102Z,98557.00
2022-10-30T01:45:59.589Z,98557.00
2022-10-30T01:46:08.111Z,98557.00
2022-10-30T01:46:18.079Z,98557.00
2022-10-30T01:46:28.087Z,98559.00
2022-10-30T01:46:39.550Z,98557.00
2022-10-30T01:46:49.530Z,98557.00
2022-10-30T01:46:59.528Z,98555.00
2022-10-30T01:47:08.079Z,98557.00
2022-10-30T01:47:18.090Z,98557.00
2022-10-30T01:47:29.532Z,98557.00
2022-10-30T01:47:39.549Z,98555.00
2022-10-30T01:47:48.987Z,98555.00
2022-10-30T01:47:59.986Z,98553.00
2022-10-30T01:48:08.070Z,98553.00
2022-10-30T01:48:18.939Z,98555.00
2022-10-30T01:48:29.559Z,98553.00
2022-10-30T01:48:39.528Z,98555.00
2022-10-30T01:48:48.891Z,98555.00
2022-10-30T01:48:59.539Z,98555.00
2022-10-30T01:49:08.069Z,98553.00
2022-10-30T01:49:18.884Z,98557.00
2022-10-30T01:49:29.512Z,98555.00
2022-10-30T01:49:38.118Z,98557.00
2022-10-30T01:49:48.379Z,98557.00
2022-10-30T01:49:59.017Z,98557.00
2022-10-30T01:50:08.610Z,98559.00
2022-10-30T01:50:19.537Z,98557.00
2022-10-30T01:50:28.058Z,98561.00
2022-10-30T01:50:39.512Z,98559.00
2022-10-30T01:50:49.504Z,98559.00
2022-10-30T01:50:58.128Z,98559.00
2022-10-30T01:51:09.521Z,98557.00
2022-10-30T01:51:18.041Z,98559.00
2022-10-30T01:51:28.057Z,98557.00
2022-10-30T01:51:39.510Z,98557.00
2022-10-30T01:51:49.515Z,98557.00
2022-10-30T01:51:58.040Z,98557.00
2022-10-30T01:52:09.515Z,98557.00
2022-10-30T01:52:19.501Z,98557.00
2022-10-30T01:52:29.489Z,98557.00
2022-10-30T01:52:38.080Z,98555.00
2022-10-30T01:52:48.081Z,98559.00
2022-10-30T01:52:58.348Z,98555.00
2022-10-30T01:53:08.992Z,98555.00
2022-10-30T01:53:18.050Z,98555.00
2022-10-30T01:53:28.040Z,98557.00
2022-10-30T01:53:38.060Z,98553.00
2022-10-30T01:53:48.331Z,98555.00
2022-10-30T01:53:59.515Z,98555.00
2022-10-30T01:54:08.053Z,98557.00
2022-10-30T01:54:18.026Z,98557.00
2022-10-30T01:54:28.020Z,98557.00
2022-10-30T01:54:38.063Z,98557.00
2022-10-30T01:54:48.012Z,98557.00
2022-10-30T01:54:58.030Z,98555.00
2022-10-30T01:55:08.061Z,98555.00
2022-10-30T01:55:18.101Z,98555.00
2022-10-30T01:55:28.031Z,98555.00
2022-10-30T01:55:38.063Z,98553.00
2022-10-30T01:55:48.022Z,98551.00
2022-10-30T01:55:59.561Z,98553.00
2022-10-30T01:56:08.092Z,98555.00
2022-10-30T01:56:18.104Z,98551.00
2022-10-30T01:56:28.040Z,98551.00
2022-10-30T01:56:38.082Z,98553.00
2022-10-30T01:56:48.112Z,98553.00
2022-10-30T01:56:58.041Z,98551.00
2022-10-30T01:57:08.072Z,98551.00
2022-10-30T01:57:18.116Z,98553.00
2022-10-30T01:57:28.042Z,98553.00
2022-10-30T01:57:38.034Z,98551.00
2022-10-30T01:57:48.114Z,98551.00
2022-10-30T01:57:59.441Z,98551.00
2022-10-30T01:58:08.082Z,98553.00
2022-10-30T01:58:18.022Z,98553.00